sensor_id;sensor_type;location;lat;lon;timestamp;temperature;humidity
17669;DHT22;8953;48.694;8.940;2022-07-29T00:01:53;17.90;99.90
17669;DHT22;8953;48.694;8.940;2022-07-29T00:04:20;17.80;99.90
17669;DHT22;8953;48.694;8.940;2022-07-29T00:06:47;17.70;99.90
17669;DHT22;8953;48.694;8.940;2022-07-29T00:09:15;17.60;99.90
17669;DHT22;8953;48.694;8.940;2022-07-29T00:11:42;17.50;99.90
17669;DHT22;8953;48.694;8.940;2022-07-29T00:14:09;17.40;99.90
17669;DHT22;8953;48.694;8.940;2022-07-29T00:16:36;17.40;99.90
17669;DHT22;8953;48.694;8.940;2022-07-29T00:19:04;17.40;99.90
17669;DHT22;8953;48.694;8.940;2022-07-29T00:21:31;17.30;99.90
17669;DHT22;8953;48.694;8.940;2022-07-29T00:23:58;17.20;99.90
17669;DHT22;8953;48.694;8.940;2022-07-29T00:26:26;17.20;99.90
17669;DHT22;8953;48.694;8.940;2022-07-29T00:28:57;17.10;99.90
17669;DHT22;8953;48.694;8.940;2022-07-29T00:31:24;17.00;99.90
17669;DHT22;8953;48.694;8.940;2022-07-29T00:33:51;17.00;99.90
17669;DHT22;8953;48.694;8.940;2022-07-29T00:36:19;17.00;99.90
17669;DHT22;8953;48.694;8.940;2022-07-29T00:38:46;17.00;99.90
17669;DHT22;8953;48.694;8.940;2022-07-29T00:41:13;16.90;99.90
17669;DHT22;8953;48.694;8.940;2022-07-29T00:43:42;16.90;99.90
17669;DHT22;8953;48.694;8.940;2022-07-29T00:46:09;16.80;99.90
17669;DHT22;8953;48.694;8.940;2022-07-29T00:48:37;16.80;99.90
17669;DHT22;8953;48.694;8.940;2022-07-29T00:51:05;16.70;99.90
17669;DHT22;8953;48.694;8.940;2022-07-29T00:53:34;16.70;99.90
17669;DHT22;8953;48.694;8.940;2022-07-29T00:56:02;16.60;99.90
17669;DHT22;8953;48.694;8.940;2022-07-29T00:58:29;16.60;99.90
17669;DHT22;8953;48.694;8.940;2022-07-29T01:00:58;16.70;99.90
17669;DHT22;8953;48.694;8.940;2022-07-29T01:03:25;16.80;99.90
17669;DHT22;8953;48.694;8.940;2022-07-29T01:05:53;16.80;99.90
17669;DHT22;8953;48.694;8.940;2022-07-29T01:08:21;16.90;99.90
17669;DHT22;8953;48.694;8.940;2022-07-29T01:10:51;16.90;99.90
17669;DHT22;8953;48.694;8.940;2022-07-29T01:13:19;16.80;99.90
17669;DHT22;8953;48.694;8.940;2022-07-29T01:15:49;16.70;99.90
17669;DHT22;8953;48.694;8.940;2022-07-29T01:18:22;16.70;99.90
17669;DHT22;8953;48.694;8.940;2022-07-29T01:21:07;16.70;99.90
17669;DHT22;8953;48.694;8.940;2022-07-29T01:23:59;16.70;99.90
17669;DHT22;8953;48.694;8.940;2022-07-29T01:26:45;16.70;99.90
17669;DHT22;8953;48.694;8.940;2022-07-29T01:29:17;16.60;99.90
17669;DHT22;8953;48.694;8.940;2022-07-29T01:31:51;16.60;99.90
17669;DHT22;8953;48.694;8.940;2022-07-29T01:34:23;16.70;99.90
17669;DHT22;8953;48.694;8.940;2022-07-29T01:36:57;16.70;99.90
17669;DHT22;8953;48.694;8.940;2022-07-29T01:39:32;16.70;99.90
17669;DHT22;8953;48.694;8.940;2022-07-29T01:42:06;16.70;99.90
17669;DHT22;8953;48.694;8.940;2022-07-29T01:44:44;16.70;99.90
17669;DHT22;8953;48.694;8.940;2022-07-29T01:47:17;16.70;99.90
17669;DHT22;8953;48.694;8.940;2022-07-29T01:49:48;16.70;99.90
17669;DHT22;8953;48.694;8.940;2022-07-29T01:52:21;16.70;99.90
17669;DHT22;8953;48.694;8.940;2022-07-29T01:54:55;16.70;99.90
17669;DHT22;8953;48.694;8.940;2022-07-29T01:57:27;16.70;99.90
17669;DHT22;8953;48.694;8.940;2022-07-29T01:59:58;16.80;99.90
17669;DHT22;8953;48.694;8.940;2022-07-29T02:02:28;16.90;99.90
17669;DHT22;8953;48.694;8.940;2022-07-29T02:04:58;16.90;99.90
17669;DHT22;8953;48.694;8.940;2022-07-29T02:07:29;16.90;99.90
17669;DHT22;8953;48.694;8.940;2022-07-29T02:10:00;16.80;99.90
17669;DHT22;8953;48.694;8.940;2022-07-29T02:12:29;16.80;99.90
17669;DHT22;8953;48.694;8.940;2022-07-29T02:15:01;16.80;99.90
17669;DHT22;8953;48.694;8.940;2022-07-29T02:17:33;16.80;99.90
17669;DHT22;8953;48.694;8.940;2022-07-29T02:20:03;16.80;99.90
17669;DHT22;8953;48.694;8.940;2022-07-29T02:22:31;16.80;99.90
17669;DHT22;8953;48.694;8.940;2022-07-29T02:25:00;16.80;99.90
17669;DHT22;8953;48.694;8.940;2022-07-29T02:27:28;16.80;99.90
17669;DHT22;8953;48.694;8.940;2022-07-29T02:29:59;16.70;99.90
17669;DHT22;8953;48.694;8.940;2022-07-29T02:32:28;16.70;99.90
17669;DHT22;8953;48.694;8.940;2022-07-29T02:34:56;16.80;99.90
17669;DHT22;8953;48.694;8.940;2022-07-29T02:37:26;16.80;99.90
17669;DHT22;8953;48.694;8.940;2022-07-29T02:39:55;16.70;99.90
17669;DHT22;8953;48.694;8.940;2022-07-29T02:42:24;16.70;99.90
17669;DHT22;8953;48.694;8.940;2022-07-29T02:44:53;16.70;99.90
17669;DHT22;8953;48.694;8.940;2022-07-29T02:47:24;16.70;99.90
17669;DHT22;8953;48.694;8.940;2022-07-29T02:49:59;16.60;99.90
17669;DHT22;8953;48.694;8.940;2022-07-29T02:52:30;16.60;99.90
17669;DHT22;8953;48.694;8.940;2022-07-29T02:55:01;16.50;99.90
17669;DHT22;8953;48.694;8.940;2022-07-29T02:57:33;16.50;99.90
17669;DHT22;8953;48.694;8.940;2022-07-29T03:00:04;16.50;99.90
17669;DHT22;8953;48.694;8.940;2022-07-29T03:02:36;16.40;99.90
17669;DHT22;8953;48.694;8.940;2022-07-29T03:05:06;16.40;99.90
17669;DHT22;8953;48.694;8.940;2022-07-29T03:07:37;16.40;99.90
17669;DHT22;8953;48.694;8.940;2022-07-29T03:10:07;16.40;99.90
17669;DHT22;8953;48.694;8.940;2022-07-29T03:12:35;16.40;99.90
17669;DHT22;8953;48.694;8.940;2022-07-29T03:15:03;16.40;99.90
17669;DHT22;8953;48.694;8.940;2022-07-29T03:17:31;16.40;99.90
17669;DHT22;8953;48.694;8.940;2022-07-29T03:20:00;16.40;99.90
17669;DHT22;8953;48.694;8.940;2022-07-29T03:22:27;16.30;99.90
17669;DHT22;8953;48.694;8.940;2022-07-29T03:24:55;16.30;99.90
17669;DHT22;8953;48.694;8.940;2022-07-29T03:27:22;16.30;99.90
17669;DHT22;8953;48.694;8.940;2022-07-29T03:29:49;16.30;99.90
17669;DHT22;8953;48.694;8.940;2022-07-29T03:32:16;16.20;99.90
17669;DHT22;8953;48.694;8.940;2022-07-29T03:34:43;16.10;99.90
17669;DHT22;8953;48.694;8.940;2022-07-29T03:37:12;16.10;99.90
17669;DHT22;8953;48.694;8.940;2022-07-29T03:39:41;16.10;99.90
17669;DHT22;8953;48.694;8.940;2022-07-29T03:42:11;16.10;99.90
17669;DHT22;8953;48.694;8.940;2022-07-29T03:44:41;16.10;99.90
17669;DHT22;8953;48.694;8.940;2022-07-29T03:47:09;16.10;99.90
17669;DHT22;8953;48.694;8.940;2022-07-29T03:49:38;16.10;99.90
17669;DHT22;8953;48.694;8.940;2022-07-29T03:52:07;16.00;99.90
17669;DHT22;8953;48.694;8.940;2022-07-29T03:54:36;16.00;99.90
17669;DHT22;8953;48.694;8.940;2022-07-29T03:57:06;15.90;99.90
17669;DHT22;8953;48.694;8.940;2022-07-29T03:59:33;15.80;99.90
17669;DHT22;8953;48.694;8.940;2022-07-29T04:02:02;15.80;99.90
17669;DHT22;8953;48.694;8.940;2022-07-29T04:04:32;15.80;99.90
17669;DHT22;8953;48.694;8.940;2022-07-29T04:07:00;15.70;99.90
17669;DHT22;8953;48.694;8.940;2022-07-29T04:09:27;15.60;99.90
17669;DHT22;8953;48.694;8.940;2022-07-29T04:11:56;15.60;99.90
17669;DHT22;8953;48.694;8.940;2022-07-29T04:14:23;15.70;99.90
17669;DHT22;8953;48.694;8.940;2022-07-29T04:16:50;15.70;99.90
17669;DHT22;8953;48.694;8.940;2022-07-29T04:19:18;15.80;99.90
17669;DHT22;8953;48.694;8.940;2022-07-29T04:21:45;15.70;99.90
17669;DHT22;8953;48.694;8.940;2022-07-29T04:24:12;15.70;99.90
17669;DHT22;8953;48.694;8.940;2022-07-29T04:26:39;15.70;99.90
17669;DHT22;8953;48.694;8.940;2022-07-29T04:29:08;15.80;99.90
17669;DHT22;8953;48.694;8.940;2022-07-29T04:31:37;15.80;99.90
17669;DHT22;8953;48.694;8.940;2022-07-29T04:34:04;15.80;99.90
17669;DHT22;8953;48.694;8.940;2022-07-29T04:36:32;15.80;99.90
17669;DHT22;8953;48.694;8.940;2022-07-29T04:38:59;15.90;99.90
17669;DHT22;8953;48.694;8.940;2022-07-29T04:41:27;16.00;99.90
17669;DHT22;8953;48.694;8.940;2022-07-29T04:43:54;16.10;99.90
17669;DHT22;8953;48.694;8.940;2022-07-29T04:46:22;16.20;99.90
17669;DHT22;8953;48.694;8.940;2022-07-29T04:48:49;16.30;99.90
17669;DHT22;8953;48.694;8.940;2022-07-29T04:51:17;16.50;99.90
17669;DHT22;8953;48.694;8.940;2022-07-29T04:53:44;16.70;99.90
17669;DHT22;8953;48.694;8.940;2022-07-29T04:56:11;17.00;99.90
17669;DHT22;8953;48.694;8.940;2022-07-29T04:58:38;17.40;99.90
17669;DHT22;8953;48.694;8.940;2022-07-29T05:01:05;17.70;99.90
17669;DHT22;8953;48.694;8.940;2022-07-29T05:03:33;18.00;99.90
17669;DHT22;8953;48.694;8.940;2022-07-29T05:06:00;18.00;99.90
17669;DHT22;8953;48.694;8.940;2022-07-29T05:08:27;18.20;99.90
17669;DHT22;8953;48.694;8.940;2022-07-29T05:17:38;18.60;99.90
17669;DHT22;8953;48.694;8.940;2022-07-29T05:20:08;18.50;99.90
17669;DHT22;8953;48.694;8.940;2022-07-29T05:22:35;18.50;99.90
17669;DHT22;8953;48.694;8.940;2022-07-29T05:25:03;18.50;99.90
17669;DHT22;8953;48.694;8.940;2022-07-29T05:27:30;18.60;99.90
17669;DHT22;8953;48.694;8.940;2022-07-29T05:29:57;18.80;99.90
17669;DHT22;8953;48.694;8.940;2022-07-29T05:32:24;18.90;99.90
17669;DHT22;8953;48.694;8.940;2022-07-29T05:34:51;19.10;99.90
17669;DHT22;8953;48.694;8.940;2022-07-29T05:37:20;19.40;99.90
17669;DHT22;8953;48.694;8.940;2022-07-29T05:39:47;20.00;99.90
17669;DHT22;8953;48.694;8.940;2022-07-29T05:42:14;20.20;99.90
17669;DHT22;8953;48.694;8.940;2022-07-29T05:44:41;20.80;99.90
17669;DHT22;8953;48.694;8.940;2022-07-29T05:47:08;21.10;99.90
17669;DHT22;8953;48.694;8.940;2022-07-29T05:49:35;21.70;99.90
17669;DHT22;8953;48.694;8.940;2022-07-29T05:52:03;22.20;99.90
17669;DHT22;8953;48.694;8.940;2022-07-29T05:54:31;22.70;99.90
17669;DHT22;8953;48.694;8.940;2022-07-29T05:56:58;23.30;99.90
17669;DHT22;8953;48.694;8.940;2022-07-29T05:59:26;24.10;99.90
17669;DHT22;8953;48.694;8.940;2022-07-29T06:01:53;24.70;99.90
17669;DHT22;8953;48.694;8.940;2022-07-29T06:04:20;25.40;99.90
17669;DHT22;8953;48.694;8.940;2022-07-29T06:06:47;26.20;99.90
17669;DHT22;8953;48.694;8.940;2022-07-29T06:09:14;27.10;99.90
17669;DHT22;8953;48.694;8.940;2022-07-29T06:11:43;27.50;99.90
17669;DHT22;8953;48.694;8.940;2022-07-29T06:14:10;27.50;99.90
17669;DHT22;8953;48.694;8.940;2022-07-29T06:16:37;27.90;99.90
17669;DHT22;8953;48.694;8.940;2022-07-29T06:19:04;28.50;99.90
17669;DHT22;8953;48.694;8.940;2022-07-29T06:21:31;29.00;99.90
17669;DHT22;8953;48.694;8.940;2022-07-29T06:23:59;29.50;99.70
17669;DHT22;8953;48.694;8.940;2022-07-29T06:26:26;29.60;98.70
17669;DHT22;8953;48.694;8.940;2022-07-29T06:28:55;29.80;97.70
17669;DHT22;8953;48.694;8.940;2022-07-29T06:31:22;30.00;96.40
17669;DHT22;8953;48.694;8.940;2022-07-29T06:33:49;30.60;94.60
17669;DHT22;8953;48.694;8.940;2022-07-29T06:36:17;30.80;93.20
17669;DHT22;8953;48.694;8.940;2022-07-29T06:38:44;29.80;93.50
17669;DHT22;8953;48.694;8.940;2022-07-29T06:41:11;28.70;95.00
17669;DHT22;8953;48.694;8.940;2022-07-29T06:43:42;27.90;97.00
17669;DHT22;8953;48.694;8.940;2022-07-29T06:46:13;27.70;98.00
17669;DHT22;8953;48.694;8.940;2022-07-29T06:48:41;28.40;97.00
17669;DHT22;8953;48.694;8.940;2022-07-29T06:51:09;28.80;96.90
17669;DHT22;8953;48.694;8.940;2022-07-29T06:53:37;29.60;95.10
17669;DHT22;8953;48.694;8.940;2022-07-29T06:56:05;29.90;95.00
17669;DHT22;8953;48.694;8.940;2022-07-29T06:58:34;30.30;94.60
17669;DHT22;8953;48.694;8.940;2022-07-29T07:01:06;31.00;92.90
17669;DHT22;8953;48.694;8.940;2022-07-29T07:03:40;31.40;91.80
17669;DHT22;8953;48.694;8.940;2022-07-29T07:06:07;31.40;90.90
17669;DHT22;8953;48.694;8.940;2022-07-29T07:08:35;31.00;91.10
17669;DHT22;8953;48.694;8.940;2022-07-29T07:11:05;30.50;91.40
17669;DHT22;8953;48.694;8.940;2022-07-29T07:13:32;29.80;93.10
17669;DHT22;8953;48.694;8.940;2022-07-29T07:16:00;29.80;92.60
17669;DHT22;8953;48.694;8.940;2022-07-29T07:18:28;29.50;92.90
17669;DHT22;8953;48.694;8.940;2022-07-29T07:20:57;29.40;93.40
17669;DHT22;8953;48.694;8.940;2022-07-29T07:23:25;29.40;92.90
17669;DHT22;8953;48.694;8.940;2022-07-29T07:25:53;29.50;93.00
17669;DHT22;8953;48.694;8.940;2022-07-29T07:28:20;29.80;93.00
17669;DHT22;8953;48.694;8.940;2022-07-29T07:30:47;30.40;92.70
17669;DHT22;8953;48.694;8.940;2022-07-29T07:33:15;31.70;90.40
17669;DHT22;8953;48.694;8.940;2022-07-29T07:35:45;32.20;88.70
17669;DHT22;8953;48.694;8.940;2022-07-29T07:38:14;32.30;89.00
17669;DHT22;8953;48.694;8.940;2022-07-29T07:40:41;32.90;86.20
17669;DHT22;8953;48.694;8.940;2022-07-29T07:43:08;32.70;86.40
17669;DHT22;8953;48.694;8.940;2022-07-29T07:45:36;33.00;84.10
17669;DHT22;8953;48.694;8.940;2022-07-29T07:48:05;33.20;82.50
17669;DHT22;8953;48.694;8.940;2022-07-29T07:50:36;32.90;82.30
17669;DHT22;8953;48.694;8.940;2022-07-29T07:53:03;33.10;80.90
17669;DHT22;8953;48.694;8.940;2022-07-29T07:55:31;33.50;80.30
17669;DHT22;8953;48.694;8.940;2022-07-29T07:57:59;33.80;77.80
17669;DHT22;8953;48.694;8.940;2022-07-29T08:00:26;34.10;77.90
17669;DHT22;8953;48.694;8.940;2022-07-29T08:02:54;34.90;77.00
17669;DHT22;8953;48.694;8.940;2022-07-29T08:05:25;35.00;75.60
17669;DHT22;8953;48.694;8.940;2022-07-29T08:07:55;34.80;75.00
17669;DHT22;8953;48.694;8.940;2022-07-29T08:10:22;35.60;75.50
17669;DHT22;8953;48.694;8.940;2022-07-29T08:13:05;37.10;71.90
17669;DHT22;8953;48.694;8.940;2022-07-29T08:15:32;37.80;69.60
17669;DHT22;8953;48.694;8.940;2022-07-29T08:17:59;38.30;64.80
17669;DHT22;8953;48.694;8.940;2022-07-29T08:20:27;37.60;65.70
17669;DHT22;8953;48.694;8.940;2022-07-29T08:22:54;37.80;63.70
17669;DHT22;8953;48.694;8.940;2022-07-29T08:25:24;38.00;63.70
17669;DHT22;8953;48.694;8.940;2022-07-29T08:27:54;37.90;62.80
17669;DHT22;8953;48.694;8.940;2022-07-29T08:30:25;37.10;63.90
17669;DHT22;8953;48.694;8.940;2022-07-29T08:32:52;36.90;64.10
17669;DHT22;8953;48.694;8.940;2022-07-29T08:35:20;36.30;64.80
17669;DHT22;8953;48.694;8.940;2022-07-29T08:37:47;35.90;66.80
17669;DHT22;8953;48.694;8.940;2022-07-29T08:40:15;36.30;67.90
17669;DHT22;8953;48.694;8.940;2022-07-29T08:42:42;36.60;65.60
17669;DHT22;8953;48.694;8.940;2022-07-29T08:45:10;37.50;62.80
17669;DHT22;8953;48.694;8.940;2022-07-29T08:47:42;37.20;63.40
17669;DHT22;8953;48.694;8.940;2022-07-29T08:50:11;38.00;62.20
17669;DHT22;8953;48.694;8.940;2022-07-29T08:52:40;37.80;62.40
17669;DHT22;8953;48.694;8.940;2022-07-29T08:55:09;38.10;62.20
17669;DHT22;8953;48.694;8.940;2022-07-29T08:57:38;39.10;60.10
17669;DHT22;8953;48.694;8.940;2022-07-29T09:00:08;38.40;59.90
17669;DHT22;8953;48.694;8.940;2022-07-29T09:02:41;37.60;61.10
17669;DHT22;8953;48.694;8.940;2022-07-29T09:05:11;37.80;61.50
17669;DHT22;8953;48.694;8.940;2022-07-29T09:07:39;38.60;58.90
17669;DHT22;8953;48.694;8.940;2022-07-29T09:10:08;39.80;56.70
17669;DHT22;8953;48.694;8.940;2022-07-29T09:12:35;39.10;58.00
17669;DHT22;8953;48.694;8.940;2022-07-29T09:15:03;39.10;57.30
17669;DHT22;8953;48.694;8.940;2022-07-29T09:17:49;39.20;56.90
17669;DHT22;8953;48.694;8.940;2022-07-29T09:20:21;39.00;58.30
17669;DHT22;8953;48.694;8.940;2022-07-29T09:22:48;38.90;56.80
17669;DHT22;8953;48.694;8.940;2022-07-29T09:25:32;39.70;55.30
17669;DHT22;8953;48.694;8.940;2022-07-29T09:28:05;39.20;56.80
17669;DHT22;8953;48.694;8.940;2022-07-29T09:30:34;39.20;56.60
17669;DHT22;8953;48.694;8.940;2022-07-29T09:33:03;39.70;56.20
17669;DHT22;8953;48.694;8.940;2022-07-29T09:35:31;39.00;57.20
17669;DHT22;8953;48.694;8.940;2022-07-29T09:38:10;38.50;58.20
17669;DHT22;8953;48.694;8.940;2022-07-29T09:40:37;38.60;57.50
17669;DHT22;8953;48.694;8.940;2022-07-29T09:43:10;39.30;57.00
17669;DHT22;8953;48.694;8.940;2022-07-29T09:45:38;38.90;55.80
17669;DHT22;8953;48.694;8.940;2022-07-29T09:48:15;38.80;55.60
17669;DHT22;8953;48.694;8.940;2022-07-29T09:50:44;36.90;58.80
17669;DHT22;8953;48.694;8.940;2022-07-29T09:53:29;35.80;61.40
17669;DHT22;8953;48.694;8.940;2022-07-29T09:55:58;35.70;63.30
17669;DHT22;8953;48.694;8.940;2022-07-29T09:58:26;35.70;65.90
17669;DHT22;8953;48.694;8.940;2022-07-29T10:00:55;36.00;65.30
17669;DHT22;8953;48.694;8.940;2022-07-29T10:03:23;35.90;61.40
17669;DHT22;8953;48.694;8.940;2022-07-29T10:06:05;35.10;61.80
17669;DHT22;8953;48.694;8.940;2022-07-29T10:08:32;34.70;62.60
17669;DHT22;8953;48.694;8.940;2022-07-29T10:11:10;34.10;63.40
17669;DHT22;8953;48.694;8.940;2022-07-29T10:13:38;33.50;65.70
17669;DHT22;8953;48.694;8.940;2022-07-29T10:16:06;32.80;66.30
17669;DHT22;8953;48.694;8.940;2022-07-29T10:18:36;31.80;71.70
17669;DHT22;8953;48.694;8.940;2022-07-29T10:21:05;30.00;80.40
17669;DHT22;8953;48.694;8.940;2022-07-29T10:23:34;28.00;87.10
17669;DHT22;8953;48.694;8.940;2022-07-29T10:26:02;26.60;90.50
17669;DHT22;8953;48.694;8.940;2022-07-29T10:28:30;25.40;93.30
17669;DHT22;8953;48.694;8.940;2022-07-29T10:31:02;24.00;94.20
17669;DHT22;8953;48.694;8.940;2022-07-29T10:33:46;22.70;99.90
17669;DHT22;8953;48.694;8.940;2022-07-29T10:36:38;21.20;99.90
17669;DHT22;8953;48.694;8.940;2022-07-29T10:39:16;20.40;99.90
17669;DHT22;8953;48.694;8.940;2022-07-29T10:42:11;20.30;99.90
17669;DHT22;8953;48.694;8.940;2022-07-29T10:44:43;20.10;99.90
17669;DHT22;8953;48.694;8.940;2022-07-29T10:47:20;20.00;99.90
17669;DHT22;8953;48.694;8.940;2022-07-29T10:50:04;19.80;99.90
17669;DHT22;8953;48.694;8.940;2022-07-29T10:52:56;19.80;99.90
17669;DHT22;8953;48.694;8.940;2022-07-29T10:55:33;19.70;99.90
17669;DHT22;8953;48.694;8.940;2022-07-29T10:58:13;19.50;99.90
17669;DHT22;8953;48.694;8.940;2022-07-29T11:00:41;19.30;99.90
17669;DHT22;8953;48.694;8.940;2022-07-29T11:03:08;19.10;99.90
17669;DHT22;8953;48.694;8.940;2022-07-29T11:05:55;19.10;99.90
17669;DHT22;8953;48.694;8.940;2022-07-29T11:08:24;19.00;99.90
17669;DHT22;8953;48.694;8.940;2022-07-29T11:10:53;18.90;99.90
17669;DHT22;8953;48.694;8.940;2022-07-29T11:13:48;19.00;99.90
17669;DHT22;8953;48.694;8.940;2022-07-29T11:16:18;19.30;99.90
17669;DHT22;8953;48.694;8.940;2022-07-29T11:19:20;19.60;99.90
17669;DHT22;8953;48.694;8.940;2022-07-29T11:21:49;19.60;99.90
17669;DHT22;8953;48.694;8.940;2022-07-29T11:24:20;19.50;99.90
17669;DHT22;8953;48.694;8.940;2022-07-29T11:27:07;19.40;99.90
17669;DHT22;8953;48.694;8.940;2022-07-29T11:29:37;19.50;99.90
17669;DHT22;8953;48.694;8.940;2022-07-29T11:32:09;19.70;99.90
17669;DHT22;8953;48.694;8.940;2022-07-29T11:34:37;20.70;99.90
17669;DHT22;8953;48.694;8.940;2022-07-29T11:37:31;21.90;99.90
17669;DHT22;8953;48.694;8.940;2022-07-29T11:40:13;21.90;99.90
17669;DHT22;8953;48.694;8.940;2022-07-29T11:42:43;21.80;99.90
17669;DHT22;8953;48.694;8.940;2022-07-29T11:45:13;21.70;99.90
17669;DHT22;8953;48.694;8.940;2022-07-29T11:47:46;21.80;99.90
17669;DHT22;8953;48.694;8.940;2022-07-29T11:50:15;21.70;99.90
17669;DHT22;8953;48.694;8.940;2022-07-29T11:52:47;21.90;99.90
17669;DHT22;8953;48.694;8.940;2022-07-29T11:55:15;22.00;99.90
17669;DHT22;8953;48.694;8.940;2022-07-29T11:57:46;22.20;99.90
17669;DHT22;8953;48.694;8.940;2022-07-29T12:00:25;22.40;99.90
17669;DHT22;8953;48.694;8.940;2022-07-29T12:02:53;22.50;99.90
17669;DHT22;8953;48.694;8.940;2022-07-29T12:05:21;22.70;99.90
17669;DHT22;8953;48.694;8.940;2022-07-29T12:07:50;23.10;99.90
17669;DHT22;8953;48.694;8.940;2022-07-29T12:10:18;23.40;99.90
17669;DHT22;8953;48.694;8.940;2022-07-29T12:12:52;23.40;99.90
17669;DHT22;8953;48.694;8.940;2022-07-29T12:15:23;23.50;99.90
17669;DHT22;8953;48.694;8.940;2022-07-29T12:17:52;23.60;99.90
17669;DHT22;8953;48.694;8.940;2022-07-29T12:20:24;23.70;99.90
17669;DHT22;8953;48.694;8.940;2022-07-29T12:22:53;23.60;99.90
17669;DHT22;8953;48.694;8.940;2022-07-29T12:25:21;23.30;99.90
17669;DHT22;8953;48.694;8.940;2022-07-29T12:27:58;23.30;99.90
17669;DHT22;8953;48.694;8.940;2022-07-29T12:30:36;23.30;99.90
17669;DHT22;8953;48.694;8.940;2022-07-29T12:33:11;22.90;99.90
17669;DHT22;8953;48.694;8.940;2022-07-29T12:35:39;22.90;99.90
17669;DHT22;8953;48.694;8.940;2022-07-29T12:38:10;22.90;99.90
17669;DHT22;8953;48.694;8.940;2022-07-29T12:40:37;22.80;99.90
17669;DHT22;8953;48.694;8.940;2022-07-29T12:43:06;22.70;99.90
17669;DHT22;8953;48.694;8.940;2022-07-29T12:45:35;22.50;99.90
17669;DHT22;8953;48.694;8.940;2022-07-29T12:48:02;22.20;99.90
17669;DHT22;8953;48.694;8.940;2022-07-29T12:50:30;21.70;99.90
17669;DHT22;8953;48.694;8.940;2022-07-29T12:53:10;21.20;99.90
17669;DHT22;8953;48.694;8.940;2022-07-29T12:55:39;20.60;99.90
17669;DHT22;8953;48.694;8.940;2022-07-29T12:58:07;20.20;99.90
17669;DHT22;8953;48.694;8.940;2022-07-29T13:00:35;20.00;99.90
17669;DHT22;8953;48.694;8.940;2022-07-29T13:03:02;19.70;99.90
17669;DHT22;8953;48.694;8.940;2022-07-29T13:05:47;19.50;99.90
17669;DHT22;8953;48.694;8.940;2022-07-29T13:08:19;19.30;99.90
17669;DHT22;8953;48.694;8.940;2022-07-29T13:10:47;19.20;99.90
17669;DHT22;8953;48.694;8.940;2022-07-29T13:13:15;19.10;99.90
17669;DHT22;8953;48.694;8.940;2022-07-29T13:15:43;18.90;99.90
17669;DHT22;8953;48.694;8.940;2022-07-29T13:18:28;18.80;99.90
17669;DHT22;8953;48.694;8.940;2022-07-29T13:20:56;18.70;99.90
17669;DHT22;8953;48.694;8.940;2022-07-29T13:23:25;18.70;99.90
17669;DHT22;8953;48.694;8.940;2022-07-29T13:25:52;18.90;99.90
17669;DHT22;8953;48.694;8.940;2022-07-29T13:28:19;19.20;99.90
17669;DHT22;8953;48.694;8.940;2022-07-29T13:30:47;19.60;99.90
17669;DHT22;8953;48.694;8.940;2022-07-29T13:33:14;20.00;99.90
17669;DHT22;8953;48.694;8.940;2022-07-29T13:35:41;20.30;99.90
17669;DHT22;8953;48.694;8.940;2022-07-29T13:38:08;20.60;99.90
17669;DHT22;8953;48.694;8.940;2022-07-29T13:40:37;20.90;99.90
17669;DHT22;8953;48.694;8.940;2022-07-29T13:43:03;21.20;99.90
17669;DHT22;8953;48.694;8.940;2022-07-29T13:45:31;21.70;99.90
17669;DHT22;8953;48.694;8.940;2022-07-29T13:47:58;22.00;99.90
17669;DHT22;8953;48.694;8.940;2022-07-29T13:50:25;22.40;99.90
17669;DHT22;8953;48.694;8.940;2022-07-29T13:52:52;22.70;99.90
17669;DHT22;8953;48.694;8.940;2022-07-29T13:55:19;22.90;99.90
17669;DHT22;8953;48.694;8.940;2022-07-29T13:57:47;23.00;99.90
17669;DHT22;8953;48.694;8.940;2022-07-29T14:00:15;23.20;99.90
17669;DHT22;8953;48.694;8.940;2022-07-29T14:02:42;23.40;99.90
17669;DHT22;8953;48.694;8.940;2022-07-29T14:05:09;23.50;99.90
17669;DHT22;8953;48.694;8.940;2022-07-29T14:07:37;23.90;99.90
17669;DHT22;8953;48.694;8.940;2022-07-29T14:10:05;24.00;99.90
17669;DHT22;8953;48.694;8.940;2022-07-29T14:12:32;24.10;99.90
17669;DHT22;8953;48.694;8.940;2022-07-29T14:15:01;24.10;99.90
17669;DHT22;8953;48.694;8.940;2022-07-29T14:17:29;24.20;99.90
17669;DHT22;8953;48.694;8.940;2022-07-29T14:19:56;24.00;99.90
17669;DHT22;8953;48.694;8.940;2022-07-29T14:22:23;24.10;99.90
17669;DHT22;8953;48.694;8.940;2022-07-29T14:24:50;24.30;99.90
17669;DHT22;8953;48.694;8.940;2022-07-29T14:27:18;24.60;99.90
17669;DHT22;8953;48.694;8.940;2022-07-29T14:29:45;24.80;99.90
17669;DHT22;8953;48.694;8.940;2022-07-29T14:32:13;25.00;99.90
17669;DHT22;8953;48.694;8.940;2022-07-29T14:34:41;25.40;99.90
17669;DHT22;8953;48.694;8.940;2022-07-29T14:37:08;25.30;99.90
17669;DHT22;8953;48.694;8.940;2022-07-29T14:39:36;25.20;99.90
17669;DHT22;8953;48.694;8.940;2022-07-29T14:42:03;25.40;99.90
17669;DHT22;8953;48.694;8.940;2022-07-29T14:44:31;25.30;99.90
17669;DHT22;8953;48.694;8.940;2022-07-29T14:46:58;25.50;99.90
17669;DHT22;8953;48.694;8.940;2022-07-29T14:49:27;25.60;99.90
17669;DHT22;8953;48.694;8.940;2022-07-29T14:51:54;25.90;99.90
17669;DHT22;8953;48.694;8.940;2022-07-29T14:54:21;25.80;99.90
17669;DHT22;8953;48.694;8.940;2022-07-29T14:56:49;25.80;99.90
17669;DHT22;8953;48.694;8.940;2022-07-29T14:59:17;25.60;99.90
17669;DHT22;8953;48.694;8.940;2022-07-29T15:01:44;25.60;99.90
17669;DHT22;8953;48.694;8.940;2022-07-29T15:04:11;25.70;99.90
17669;DHT22;8953;48.694;8.940;2022-07-29T15:06:40;25.70;99.90
17669;DHT22;8953;48.694;8.940;2022-07-29T15:09:07;25.90;99.90
17669;DHT22;8953;48.694;8.940;2022-07-29T15:11:34;25.90;99.90
17669;DHT22;8953;48.694;8.940;2022-07-29T15:14:01;25.60;99.90
17669;DHT22;8953;48.694;8.940;2022-07-29T15:16:28;25.70;99.90
17669;DHT22;8953;48.694;8.940;2022-07-29T15:18:55;25.60;99.90
17669;DHT22;8953;48.694;8.940;2022-07-29T15:21:23;25.40;99.90
17669;DHT22;8953;48.694;8.940;2022-07-29T15:23:52;25.40;99.90
17669;DHT22;8953;48.694;8.940;2022-07-29T15:26:19;25.30;99.90
17669;DHT22;8953;48.694;8.940;2022-07-29T15:28:46;25.30;99.90
17669;DHT22;8953;48.694;8.940;2022-07-29T15:31:13;25.20;99.90
17669;DHT22;8953;48.694;8.940;2022-07-29T15:33:40;25.00;99.90
17669;DHT22;8953;48.694;8.940;2022-07-29T15:36:07;24.90;99.90
17669;DHT22;8953;48.694;8.940;2022-07-29T15:38:34;24.90;99.90
17669;DHT22;8953;48.694;8.940;2022-07-29T15:41:03;24.90;99.90
17669;DHT22;8953;48.694;8.940;2022-07-29T15:43:30;24.70;99.90
17669;DHT22;8953;48.694;8.940;2022-07-29T15:45:57;24.50;99.90
17669;DHT22;8953;48.694;8.940;2022-07-29T15:48:43;24.50;99.90
17669;DHT22;8953;48.694;8.940;2022-07-29T15:51:10;24.50;99.90
17669;DHT22;8953;48.694;8.940;2022-07-29T15:53:37;24.40;99.90
17669;DHT22;8953;48.694;8.940;2022-07-29T15:56:06;24.50;99.90
17669;DHT22;8953;48.694;8.940;2022-07-29T15:58:33;24.70;99.90
17669;DHT22;8953;48.694;8.940;2022-07-29T16:01:00;24.80;99.90
17669;DHT22;8953;48.694;8.940;2022-07-29T16:03:27;25.10;99.90
17669;DHT22;8953;48.694;8.940;2022-07-29T16:05:54;25.30;99.90
17669;DHT22;8953;48.694;8.940;2022-07-29T16:08:21;25.10;99.90